createdAt,value
2022-12-26T00:02:10.861Z,100264.80
2022-12-26T00:04:49.355Z,100262.17
2022-12-26T00:07:25.017Z,100261.92
2022-12-26T00:09:57.610Z,100271.39
2022-12-26T00:12:30.003Z,100275.01
2022-12-26T00:15:02.405Z,100271.39
2022-12-26T00:17:34.752Z,100264.30
2022-12-26T00:20:08.635Z,100250.09
2022-12-26T00:22:40.979Z,100243.59
2022-12-26T00:25:13.560Z,100244.59
2022-12-26T00:27:45.940Z,100231.13
2022-12-26T00:30:19.240Z,100213.46
2022-12-26T00:32:53.958Z,100202.09
2022-12-26T00:35:26.455Z,100192.09
2022-12-26T00:37:59.727Z,100185.09
2022-12-26T00:40:32.133Z,100191.98
2022-12-26T00:43:04.579Z,100198.18
2022-12-26T00:45:37.075Z,100202.69
2022-12-26T00:48:09.752Z,100204.60
2022-12-26T00:50:45.097Z,100208.65
2022-12-26T00:53:17.425Z,100206.48
2022-12-26T00:55:49.953Z,100209.13
2022-12-26T00:58:23.086Z,100207.72
2022-12-26T01:00:55.734Z,100204.90
2022-12-26T01:03:28.154Z,100209.40
2022-12-26T01:06:03.341Z,100204.27
2022-12-26T01:08:34.154Z,100197.30
2022-12-26T01:11:09.325Z,100178.63
2022-12-26T01:13:40.346Z,100162.55
2022-12-26T01:16:12.803Z,100148.74
2022-12-26T01:18:45.220Z,100141.71
2022-12-26T01:21:17.591Z,100134.73
2022-12-26T01:23:49.921Z,100132.80
2022-12-26T01:26:22.644Z,100132.10
2022-12-26T01:28:55.558Z,100135.91
2022-12-26T01:31:28.071Z,100131.57
2022-12-26T01:34:00.608Z,100135.77
2022-12-26T01:36:33.008Z,100132.77
2022-12-26T01:39:05.406Z,100126.58
2022-12-26T01:41:37.765Z,100126.66
2022-12-26T01:44:47.220Z,100129.27
2022-12-26T01:47:22.436Z,100125.74
2022-12-26T01:49:54.737Z,100122.95
2022-12-26T01:52:30.816Z,100121.38
2022-12-26T01:55:05.187Z,100112.19
2022-12-26T01:57:43.040Z,100103.44
2022-12-26T02:00:18.354Z,100096.42
2022-12-26T02:03:09.435Z,100089.83
2022-12-26T02:05:43.865Z,100093.02
2022-12-26T02:08:21.560Z,100089.92
2022-12-26T02:10:58.287Z,100076.38
2022-12-26T02:13:31.835Z,100057.18
2022-12-26T02:16:05.110Z,100049.98
2022-12-26T02:18:37.923Z,100042.85
2022-12-26T02:21:30.639Z,100045.78
2022-12-26T02:24:35.627Z,100035.03
2022-12-26T02:27:31.740Z,100025.91
2022-12-26T02:30:27.246Z,100018.35
2022-12-26T02:33:27.651Z,100012.78
2022-12-26T02:36:18.589Z,100006.93
2022-12-26T02:39:03.455Z,100006.14
2022-12-26T02:42:07.728Z,99996.15
2022-12-26T02:45:05.577Z,99989.73
2022-12-26T02:47:43.826Z,99978.98
2022-12-26T02:50:43.110Z,99961.75
2022-12-26T02:53:39.728Z,99952.94
2022-12-26T02:56:37.122Z,99943.85
2022-12-26T02:59:53.867Z,99938.70
2022-12-26T03:02:49.048Z,99926.58
2022-12-26T03:05:46.313Z,99925.71
2022-12-26T03:08:43.879Z,99909.98
2022-12-26T03:11:34.044Z,99898.46
2022-12-26T03:14:15.810Z,99890.89
2022-12-26T03:17:11.749Z,99881.50
2022-12-26T03:19:58.488Z,99859.24
2022-12-26T03:22:38.168Z,99849.31
2022-12-26T03:25:46.207Z,99836.52
2022-12-26T03:28:18.986Z,99823.36
2022-12-26T03:30:52.169Z,99817.74
2022-12-26T03:33:45.732Z,99824.63
2022-12-26T03:36:27.107Z,99830.33
2022-12-26T03:39:10.485Z,99840.22
2022-12-26T03:42:09.797Z,99843.67
2022-12-26T03:45:06.966Z,99831.55
2022-12-26T03:48:04.485Z,99825.03
2022-12-26T03:50:58.181Z,99820.05
2022-12-26T03:53:54.787Z,99808.63
2022-12-26T03:56:51.977Z,99796.67
2022-12-26T03:59:47.524Z,99797.23
2022-12-26T04:02:40.162Z,99807.53
2022-12-26T04:05:33.761Z,99799.30
2022-12-26T04:08:42.614Z,99795.30
2022-12-26T04:11:35.759Z,99795.10
2022-12-26T04:14:31.734Z,99790.16
2022-12-26T04:17:23.857Z,99781.38
2022-12-26T04:20:06.813Z,99779.46
2022-12-26T04:23:03.715Z,99784.70
2022-12-26T04:26:00.096Z,99781.84
2022-12-26T04:28:50.283Z,99770.44
2022-12-26T04:31:46.107Z,99762.87
2022-12-26T04:34:44.667Z,99763.52
2022-12-26T04:37:39.852Z,99776.20
2022-12-26T04:40:35.546Z,99758.59
2022-12-26T04:43:48.822Z,99750.20
2022-12-26T04:46:23.393Z,99731.91
2022-12-26T04:49:29.822Z,99729.69
2022-12-26T04:52:01.563Z,99711.70
2022-12-26T04:54:33.907Z,99711.70
2022-12-26T04:57:07.069Z,99712.48
2022-12-26T04:59:39.391Z,99722.98
2022-12-26T05:02:30.410Z,99722.55
2022-12-26T05:05:16.776Z,99716.84
2022-12-26T05:08:06.893Z,99715.05
2022-12-26T05:10:39.291Z,99721.04
2022-12-26T05:13:11.690Z,99717.13
2022-12-26T05:15:57.954Z,99706.27
2022-12-26T05:18:47.875Z,99704.17
2022-12-26T05:21:39.037Z,99701.41
2022-12-26T05:24:30.685Z,99698.95
2022-12-26T05:27:25.893Z,99686.08
2022-12-26T05:29:58.396Z,99694.70
2022-12-26T05:32:48.613Z,99706.74
2022-12-26T05:35:21.625Z,99700.00
2022-12-26T05:37:54.050Z,99699.55
2022-12-26T05:40:26.345Z,99696.07
2022-12-26T05:42:58.830Z,99690.02
2022-12-26T05:45:31.147Z,99680.65
2022-12-26T05:48:04.028Z,99686.38
2022-12-26T05:50:36.377Z,99693.05
2022-12-26T05:53:08.754Z,99689.02
2022-12-26T05:55:41.634Z,99678.05
2022-12-26T05:58:13.984Z,99677.82
2022-12-26T06:00:46.335Z,99677.81
2022-12-26T06:03:18.844Z,99678.09
2022-12-26T06:05:51.317Z,99664.32
2022-12-26T06:08:23.683Z,99668.84
2022-12-26T06:10:55.974Z,99670.60
2022-12-26T06:13:28.399Z,99659.91
2022-12-26T06:16:00.808Z,99653.46
2022-12-26T06:18:33.171Z,99652.55
2022-12-26T06:21:11.136Z,99647.34
2022-12-26T06:23:44.181Z,99643.87
2022-12-26T06:26:17.509Z,99637.85
2022-12-26T06:28:49.925Z,99634.01
2022-12-26T06:31:25.208Z,99624.73
2022-12-26T06:34:01.511Z,99625.18
2022-12-26T06:36:33.836Z,99621.17
2022-12-26T06:39:06.434Z,99614.55
2022-12-26T06:41:38.796Z,99618.10
2022-12-26T06:44:17.972Z,99621.20
2022-12-26T06:46:51.082Z,99623.75
2022-12-26T06:49:32.151Z,99621.50
2022-12-26T06:52:05.353Z,99616.02
2022-12-26T06:54:37.756Z,99607.16
2022-12-26T06:57:10.437Z,99609.77
2022-12-26T06:59:42.780Z,99596.16
2022-12-26T07:02:15.349Z,99594.59
2022-12-26T07:04:47.834Z,99584.77
2022-12-26T07:07:20.267Z,99578.27
2022-12-26T07:09:52.657Z,99571.91
2022-12-26T07:12:26.293Z,99568.34
2022-12-26T07:15:01.712Z,99569.02
2022-12-26T07:17:34.615Z,99575.02
2022-12-26T07:20:08.166Z,99583.66
2022-12-26T07:22:40.952Z,99582.23
2022-12-26T07:25:13.622Z,99577.71
2022-12-26T07:27:46.028Z,99564.27
2022-12-26T07:30:18.760Z,99569.15
2022-12-26T07:32:51.159Z,99559.52
2022-12-26T07:35:23.566Z,99564.27
2022-12-26T07:37:56.310Z,99565.66
2022-12-26T07:40:29.511Z,99569.38
2022-12-26T07:43:01.989Z,99562.48
2022-12-26T07:45:34.409Z,99555.64
2022-12-26T07:48:07.119Z,99558.10
2022-12-26T07:50:39.461Z,99552.76
2022-12-26T07:53:11.907Z,99547.80
2022-12-26T07:55:45.541Z,99547.08
2022-12-26T07:58:18.010Z,99550.85
2022-12-26T08:00:50.490Z,99551.64
2022-12-26T08:03:23.043Z,99550.41
2022-12-26T08:05:55.795Z,99551.73
2022-12-26T08:08:28.671Z,99548.03
2022-12-26T08:11:04.850Z,99544.68
2022-12-26T08:13:37.343Z,99543.81
2022-12-26T08:16:12.346Z,99534.38
2022-12-26T08:18:45.519Z,99530.02
2022-12-26T08:21:18.291Z,99529.83
2022-12-26T08:23:50.699Z,99523.48
2022-12-26T08:26:23.538Z,99522.09
2022-12-26T08:28:58.272Z,99519.60
2022-12-26T08:31:30.751Z,99517.93
2022-12-26T08:34:03.063Z,99516.65
2022-12-26T08:36:35.432Z,99512.27
2022-12-26T08:39:08.497Z,99501.52
2022-12-26T08:41:40.924Z,99500.45
2022-12-26T08:44:27.211Z,99504.55
2022-12-26T08:47:00.427Z,99497.52
2022-12-26T08:49:32.811Z,99500.13
2022-12-26T08:52:05.352Z,99497.12
2022-12-26T08:54:37.922Z,99495.70
2022-12-26T08:57:11.032Z,99491.82
2022-12-26T08:59:43.789Z,99492.31
2022-12-26T09:02:16.324Z,99492.05
2022-12-26T09:04:48.842Z,99490.27
2022-12-26T09:07:21.883Z,99490.79
2022-12-26T09:09:54.202Z,99494.17
2022-12-26T09:12:27.398Z,99493.70
2022-12-26T09:14:59.767Z,99497.48
2022-12-26T09:17:32.703Z,99495.63
2022-12-26T09:20:05.472Z,99482.80
2022-12-26T09:22:52.993Z,99487.44
2022-12-26T09:25:27.794Z,99487.93
2022-12-26T09:28:00.371Z,99483.80
2022-12-26T09:30:33.434Z,99484.38
2022-12-26T09:33:08.446Z,99486.02
2022-12-26T09:35:43.720Z,99487.35
2022-12-26T09:38:16.033Z,99481.71
2022-12-26T09:40:59.746Z,99480.94
2022-12-26T09:43:50.200Z,99482.52
2022-12-26T09:46:40.266Z,99484.16
2022-12-26T09:49:16.807Z,99483.14
2022-12-26T09:51:54.127Z,99480.16
2022-12-26T09:54:32.660Z,99479.96
2022-12-26T09:57:14.584Z,99478.12
2022-12-26T09:59:52.516Z,99470.61
2022-12-26T10:02:27.806Z,99470.34
2022-12-26T10:05:00.595Z,99467.71
2022-12-26T10:07:41.771Z,99459.13
2022-12-26T10:10:20.689Z,99457.48
2022-12-26T10:13:04.363Z,99458.27
2022-12-26T10:15:46.699Z,99457.66
2022-12-26T10:18:31.850Z,99450.84
2022-12-26T10:21:30.206Z,99451.29
2022-12-26T10:24:09.603Z,99448.64
2022-12-26T10:26:44.695Z,99448.15
2022-12-26T10:29:23.310Z,99442.26
2022-12-26T10:32:00.518Z,99443.52
2022-12-26T10:34:36.583Z,99442.19
2022-12-26T10:37:19.378Z,99438.62
2022-12-26T10:39:57.360Z,99434.04
2022-12-26T10:42:34.485Z,99435.57
2022-12-26T10:45:17.336Z,99432.33
2022-12-26T10:47:51.860Z,99433.27
2022-12-26T10:50:28.033Z,99431.89
2022-12-26T10:53:01.955Z,99429.55
2022-12-26T10:55:36.118Z,99428.48
2022-12-26T10:58:16.900Z,99428.61
2022-12-26T11:00:49.363Z,99424.89
2022-12-26T11:03:22.720Z,99419.73
2022-12-26T11:06:13.138Z,99411.15
2022-12-26T11:08:51.723Z,99413.60
2022-12-26T11:11:27.354Z,99413.33
2022-12-26T11:14:03.491Z,99414.58
2022-12-26T11:16:39.924Z,99414.14
2022-12-26T11:19:29.937Z,99412.80
2022-12-26T11:22:24.344Z,99415.12
2022-12-26T11:25:19.789Z,99411.67
2022-12-26T11:27:54.628Z,99408.79
2022-12-26T11:30:33.007Z,99414.77
2022-12-26T11:33:22.383Z,99412.54
2022-12-26T11:36:03.256Z,99408.55
2022-12-26T11:38:49.016Z,99408.20
2022-12-26T11:41:36.484Z,99406.32
2022-12-26T11:44:30.478Z,99402.00
2022-12-26T11:47:10.397Z,99403.41
2022-12-26T11:49:48.397Z,99413.28
2022-12-26T11:52:42.306Z,99407.00
2022-12-26T11:55:31.113Z,99404.77
2022-12-26T11:58:16.472Z,99399.52
2022-12-26T12:01:07.734Z,99401.32
2022-12-26T12:03:48.870Z,99404.27
2022-12-26T12:06:46.479Z,99404.30
2022-12-26T12:09:26.709Z,99402.54
2022-12-26T12:12:07.279Z,99400.35
2022-12-26T12:14:54.753Z,99404.77
2022-12-26T12:17:36.543Z,99406.96
2022-12-26T12:20:32.606Z,99409.36
2022-12-26T12:23:30.445Z,99405.10
2022-12-26T12:26:12.498Z,99405.80
2022-12-26T12:29:28.756Z,99409.13
2022-12-26T12:32:15.098Z,99413.37
2022-12-26T12:35:09.079Z,99409.45
2022-12-26T12:38:08.457Z,99418.01
2022-12-26T12:40:49.713Z,99415.93
2022-12-26T12:43:29.574Z,99415.37
2022-12-26T12:46:12.595Z,99427.37
2022-12-26T12:49:07.282Z,99431.20
2022-12-26T12:51:48.926Z,99425.58
2022-12-26T12:54:50.967Z,99425.08
2022-12-26T12:57:31.302Z,99426.88
2022-12-26T13:00:15.585Z,99423.40
2022-12-26T13:02:57.019Z,99430.85
2022-12-26T13:05:39.089Z,99430.39
2022-12-26T13:08:16.737Z,99432.63
2022-12-26T13:10:53.460Z,99431.08
2022-12-26T13:13:29.778Z,99427.64
2022-12-26T13:16:08.276Z,99423.74
2022-12-26T13:18:48.627Z,99423.92
2022-12-26T13:21:23.120Z,99424.72
2022-12-26T13:24:19.936Z,99425.05
2022-12-26T13:26:59.467Z,99431.45
2022-12-26T13:29:40.639Z,99425.05
2022-12-26T13:32:24.470Z,99424.45
2022-12-26T13:34:59.450Z,99423.27
2022-12-26T13:37:55.867Z,99426.45
2022-12-26T13:40:32.193Z,99436.55
2022-12-26T13:43:35.935Z,99438.16
2022-12-26T13:46:30.097Z,99441.27
2022-12-26T13:49:02.895Z,99446.21
2022-12-26T13:51:50.173Z,99456.42
2022-12-26T13:54:24.774Z,99456.22
2022-12-26T13:57:28.537Z,99460.48
2022-12-26T14:00:09.503Z,99459.69
2022-12-26T14:03:25.774Z,99458.20
2022-12-26T14:06:23.964Z,99464.42
2022-12-26T14:09:29.718Z,99466.91
2022-12-26T14:12:15.271Z,99468.94
2022-12-26T14:15:04.313Z,99467.92
2022-12-26T14:17:46.668Z,99470.42
2022-12-26T14:20:37.311Z,99470.71
2022-12-26T14:23:30.072Z,99472.33
2022-12-26T14:26:09.510Z,99478.46
2022-12-26T14:28:57.777Z,99481.45
2022-12-26T14:31:39.748Z,99482.52
2022-12-26T14:34:26.385Z,99481.11
2022-12-26T14:37:05.485Z,99483.13
2022-12-26T14:40:02.950Z,99478.86
2022-12-26T14:43:11.828Z,99477.84
2022-12-26T14:45:51.061Z,99469.63
2022-12-26T14:48:52.615Z,99470.75
2022-12-26T14:51:42.360Z,99478.26
2022-12-26T14:54:50.967Z,99474.73
2022-12-26T14:57:53.951Z,99481.11
2022-12-26T15:00:43.851Z,99481.67
2022-12-26T15:03:37.649Z,99483.42
2022-12-26T15:06:44.174Z,99487.77
2022-12-26T15:09:55.407Z,99489.49
2022-12-26T15:13:04.315Z,99486.84
2022-12-26T15:15:48.535Z,99488.86
2022-12-26T15:18:53.147Z,99478.35
2022-12-26T15:21:47.407Z,99473.07
2022-12-26T15:25:17.649Z,99468.48
2022-12-26T15:28:04.009Z,99465.86
2022-12-26T15:30:58.206Z,99457.80
2022-12-26T15:33:40.482Z,99458.79
2022-12-26T15:36:26.492Z,99460.38
2022-12-26T15:39:04.872Z,99464.36
2022-12-26T15:41:46.925Z,99467.39
2022-12-26T15:44:27.912Z,99466.27
2022-12-26T15:47:19.260Z,99465.69
2022-12-26T15:50:03.034Z,99469.25
2022-12-26T15:52:47.939Z,99471.07
2022-12-26T15:55:34.691Z,99471.73
2022-12-26T15:58:13.358Z,99477.86
2022-12-26T16:00:53.881Z,99482.13
2022-12-26T16:03:35.706Z,99485.59
2022-12-26T16:06:33.858Z,99490.67
2022-12-26T16:09:33.459Z,99488.83
2022-12-26T16:12:26.095Z,99494.79
2022-12-26T16:15:16.147Z,99494.05
2022-12-26T16:17:49.028Z,99494.45
2022-12-26T16:20:51.741Z,99489.24
2022-12-26T16:23:28.338Z,99482.79
2022-12-26T16:26:01.683Z,99483.92
2022-12-26T16:28:38.896Z,99485.51
2022-12-26T16:31:18.485Z,99477.46
2022-12-26T16:33:52.267Z,99470.98
2022-12-26T16:36:30.008Z,99475.40
2022-12-26T16:39:02.465Z,99477.02
2022-12-26T16:41:37.220Z,99474.95
2022-12-26T16:44:31.635Z,99476.27
2022-12-26T16:47:06.584Z,99473.54
2022-12-26T16:49:38.149Z,99475.35
2022-12-26T16:52:30.703Z,99478.84
2022-12-26T16:55:27.489Z,99488.16
2022-12-26T16:58:02.899Z,99499.40
2022-12-26T17:00:35.438Z,99498.19
2022-12-26T17:03:19.577Z,99494.29
2022-12-26T17:05:52.036Z,99488.60
2022-12-26T17:08:26.135Z,99484.91
2022-12-26T17:10:58.598Z,99487.77
2022-12-26T17:13:31.098Z,99490.30
2022-12-26T17:16:10.677Z,99486.97
2022-12-26T17:18:52.690Z,99485.60
2022-12-26T17:21:31.104Z,99490.74
2022-12-26T17:24:26.911Z,99493.98
2022-12-26T17:27:10.617Z,99497.84
2022-12-26T17:30:00.719Z,99497.85
2022-12-26T17:32:40.923Z,99500.17
2022-12-26T17:35:19.158Z,99496.30
2022-12-26T17:37:57.537Z,99502.80
2022-12-26T17:40:35.159Z,99507.95
2022-12-26T17:43:21.744Z,99508.92
2022-12-26T17:45:54.161Z,99514.14
2022-12-26T17:48:26.774Z,99512.71
2022-12-26T17:51:03.030Z,99518.23
2022-12-26T17:53:37.658Z,99520.63
2022-12-26T17:56:14.974Z,99522.49
2022-12-26T17:58:47.423Z,99525.30
2022-12-26T18:01:22.218Z,99524.91
2022-12-26T18:03:54.930Z,99526.08
2022-12-26T18:06:27.559Z,99529.11
2022-12-26T18:08:59.906Z,99539.41
2022-12-26T18:11:32.284Z,99540.78
2022-12-26T18:14:04.628Z,99540.61
2022-12-26T18:16:37.090Z,99541.36
2022-12-26T18:19:14.227Z,99540.29
2022-12-26T18:21:46.650Z,99544.45
2022-12-26T18:24:19.035Z,99546.90
2022-12-26T18:26:51.610Z,99545.66
2022-12-26T18:29:23.985Z,99548.53
2022-12-26T18:31:56.477Z,99544.90
2022-12-26T18:34:28.964Z,99545.20
2022-12-26T18:37:01.313Z,99541.57
2022-12-26T18:39:33.567Z,99541.77
2022-12-26T18:42:07.154Z,99542.98
2022-12-26T18:44:39.554Z,99544.42
2022-12-26T18:47:13.435Z,99549.39
2022-12-26T18:49:46.077Z,99546.03
2022-12-26T18:52:18.437Z,99542.66
2022-12-26T18:54:50.840Z,99541.13
2022-12-26T18:57:23.391Z,99539.61
2022-12-26T18:59:56.442Z,99536.55
2022-12-26T19:02:28.883Z,99538.04
2022-12-26T19:05:01.635Z,99539.23
2022-12-26T19:07:34.015Z,99547.77
2022-12-26T19:10:07.427Z,99541.66
2022-12-26T19:12:39.779Z,99543.73
2022-12-26T19:15:14.667Z,99540.94
2022-12-26T19:17:47.191Z,99540.17
2022-12-26T19:20:22.984Z,99537.43
2022-12-26T19:22:56.447Z,99540.02
2022-12-26T19:25:29.026Z,99543.20
2022-12-26T19:28:02.502Z,99544.84
2022-12-26T19:30:38.838Z,99546.02
2022-12-26T19:33:11.671Z,99549.52
2022-12-26T19:35:44.105Z,99545.48
2022-12-26T19:38:16.463Z,99548.02
2022-12-26T19:40:48.791Z,99545.02
2022-12-26T19:43:21.235Z,99545.33
2022-12-26T19:46:01.833Z,99543.64
2022-12-26T19:48:35.375Z,99543.14
2022-12-26T19:51:09.469Z,99543.96
2022-12-26T19:53:42.738Z,99545.99
2022-12-26T19:56:16.548Z,99550.71
2022-12-26T19:58:55.942Z,99555.05
2022-12-26T20:01:32.002Z,99555.61
2022-12-26T20:04:07.048Z,99557.67
2022-12-26T20:06:40.911Z,99560.23
2022-12-26T20:09:15.006Z,99557.33
2022-12-26T20:11:49.952Z,99554.52
2022-12-26T20:14:27.059Z,99545.95
2022-12-26T20:17:06.072Z,99553.14
2022-12-26T20:19:40.409Z,99548.89
2022-12-26T20:22:13.091Z,99550.35
2022-12-26T20:24:46.948Z,99552.54
2022-12-26T20:27:19.425Z,99551.84
2022-12-26T20:29:51.772Z,99551.60
2022-12-26T20:32:24.221Z,99552.34
2022-12-26T20:34:56.594Z,99552.31
2022-12-26T20:37:29.367Z,99549.95
2022-12-26T20:40:01.710Z,99551.61
2022-12-26T20:42:34.121Z,99548.98
2022-12-26T20:45:07.866Z,99548.21
2022-12-26T20:47:40.276Z,99549.54
2022-12-26T20:50:12.781Z,99551.58
2022-12-26T20:52:45.171Z,99558.55
2022-12-26T20:55:18.290Z,99558.37
2022-12-26T20:57:50.666Z,99558.60
2022-12-26T21:00:23.088Z,99562.61
2022-12-26T21:02:55.771Z,99558.77
2022-12-26T21:05:28.320Z,99561.45
2022-12-26T21:08:00.719Z,99559.81
2022-12-26T21:10:33.785Z,99561.42
2022-12-26T21:13:06.306Z,99552.30
2022-12-26T21:15:39.297Z,99552.77
2022-12-26T21:18:11.606Z,99555.77
2022-12-26T21:20:43.941Z,99552.86
2022-12-26T21:23:16.372Z,99551.23
2022-12-26T21:25:48.869Z,99550.59
2022-12-26T21:28:21.217Z,99553.91
2022-12-26T21:30:53.651Z,99553.08
2022-12-26T21:33:26.319Z,99557.73
2022-12-26T21:35:59.156Z,99555.29
2022-12-26T21:38:32.704Z,99551.92
2022-12-26T21:41:07.233Z,99558.73
2022-12-26T21:43:39.906Z,99559.80
2022-12-26T21:46:16.197Z,99564.84
2022-12-26T21:48:50.325Z,99567.44
2022-12-26T21:51:26.195Z,99571.20
2022-12-26T21:54:22.959Z,99574.98
2022-12-26T21:56:55.337Z,99570.51
2022-12-26T21:59:45.549Z,99572.54
2022-12-26T22:02:32.338Z,99571.80
2022-12-26T22:05:05.192Z,99569.45
2022-12-26T22:07:37.576Z,99574.21
2022-12-26T22:10:34.741Z,99571.99
2022-12-26T22:13:08.101Z,99569.64
2022-12-26T22:16:03.511Z,99575.23
2022-12-26T22:18:38.419Z,99575.50
2022-12-26T22:21:13.320Z,99575.36
2022-12-26T22:23:46.102Z,99571.41
2022-12-26T22:26:19.169Z,99572.02
2022-12-26T22:28:51.566Z,99570.23
2022-12-26T22:31:25.690Z,99567.92
2022-12-26T22:33:59.922Z,99570.67
2022-12-26T22:36:33.221Z,99573.81
2022-12-26T22:39:06.284Z,99575.02
2022-12-26T22:41:38.754Z,99575.98
2022-12-26T22:44:11.154Z,99579.56
2022-12-26T22:46:44.335Z,99576.38
2022-12-26T22:49:16.719Z,99579.34
2022-12-26T22:51:49.430Z,99579.50
2022-12-26T22:54:22.310Z,99581.48
2022-12-26T22:56:54.689Z,99585.91
2022-12-26T22:59:58.120Z,99588.20
2022-12-26T23:02:20.642Z,99593.05
2022-12-26T23:04:54.148Z,99591.05
2022-12-26T23:07:27.559Z,99591.06
2022-12-26T23:10:00.615Z,99594.76
2022-12-26T23:12:46.445Z,99589.62
2022-12-26T23:15:22.763Z,99583.38
2022-12-26T23:18:14.218Z,99586.37
2022-12-26T23:21:04.569Z,99586.70
2022-12-26T23:23:39.386Z,99582.47
2022-12-26T23:26:12.195Z,99580.80
2022-12-26T23:29:02.444Z,99578.96
2022-12-26T23:31:34.894Z,99581.52
2022-12-26T23:34:07.362Z,99582.02
2022-12-26T23:36:39.713Z,99581.38
2022-12-26T23:39:12.313Z,99589.42
2022-12-26T23:41:45.737Z,99596.77
2022-12-26T23:44:18.236Z,99601.00
2022-12-26T23:46:50.815Z,99603.79
2022-12-26T23:49:23.317Z,99607.06
2022-12-26T23:51:55.581Z,99608.23
2022-12-26T23:54:28.649Z,99602.46
2022-12-26T23:57:01.007Z,99601.67
2022-12-26T23:59:33.421Z,99608.90
